Time;durP1;ratioP1;P1;durP2;ratioP2;P2;SDS_P1;SDS_P2;PMS_P1;PMS_P2;Temp;Humidity;BMP_temperature;BMP_pressure;BME280_temperature;BME280_humidity;BME280_pressure;Samples;Min_cycle;Max_cycle;Signal;HPM_P1;HPM_P2
2020/12/07 00:01:06;;;;;;;25.38;18.58;;;9.00;84.10;;;8.31;67.50;93260.50;5017882;28;20315;-83
2020/12/07 00:03:34;;;;;;;25.20;17.88;;;9.00;84.10;;;8.33;67.50;93244.59;5018180;28;20204;-81
2020/12/07 00:06:03;;;;;;;24.08;18.02;;;9.00;84.10;;;8.27;67.29;93246.25;5032041;28;20642;-83
2020/12/07 00:08:29;;;;;;;26.08;19.15;;;9.00;84.10;;;8.29;67.16;93241.63;5037468;28;20203;-81
2020/12/07 00:10:57;;;;;;;29.98;20.40;;;9.00;84.10;;;8.27;67.49;93233.19;5037595;28;20188;-83
2020/12/07 00:13:24;;;;;;;24.27;18.60;;;9.00;84.20;;;8.28;67.37;93234.00;5037437;28;20666;-83
2020/12/07 00:15:52;;;;;;;27.00;18.60;;;9.00;84.20;;;8.25;67.00;93224.81;5021620;28;20214;-83
2020/12/07 00:18:19;;;;;;;28.95;20.45;;;9.00;84.20;;;8.24;67.50;93228.44;5053847;28;20191;-83
2020/12/07 00:20:46;;;;;;;25.08;18.38;;;9.00;84.20;;;8.24;67.25;93211.94;5037465;28;20223;-83
2020/12/07 00:23:14;;;;;;;25.85;18.92;;;8.90;84.10;;;8.24;67.44;93215.38;5037526;28;20658;-84
2020/12/07 00:25:40;;;;;;;27.17;18.73;;;9.00;84.30;;;8.26;67.37;93223.75;5033622;28;20228;-84
2020/12/07 00:28:07;;;;;;;26.42;18.73;;;8.90;84.20;;;8.25;67.63;93211.75;5034214;28;20197;-83
2020/12/07 00:30:34;;;;;;;28.02;20.55;;;9.00;84.20;;;8.23;67.43;93219.00;5034122;28;20239;-84
2020/12/07 00:33:02;;;;;;;28.13;19.95;;;9.00;85.00;;;8.19;67.43;93215.25;5034104;28;20228;-83
2020/12/07 00:35:29;;;;;;;27.13;19.58;;;8.90;84.10;;;8.21;67.46;93209.78;5033488;28;20219;-84
2020/12/07 00:37:57;;;;;;;27.30;19.70;;;8.90;84.20;;;8.20;67.57;93210.78;5049731;28;20208;-83
2020/12/07 00:40:24;;;;;;;31.08;20.27;;;8.90;84.20;;;8.19;67.65;93212.63;5017545;28;20566;-80
2020/12/07 00:42:51;;;;;;;27.33;19.88;;;8.90;84.20;;;8.20;67.67;93229.06;5050325;28;20211;-81
2020/12/07 00:45:20;;;;;;;26.83;18.73;;;9.00;84.30;;;8.21;67.50;93215.00;5033382;28;20279;-81
2020/12/07 00:47:47;;;;;;;29.00;20.70;;;8.90;84.20;;;8.19;67.42;93230.91;5000768;28;20779;-81
2020/12/07 00:50:14;;;;;;;29.38;20.63;;;8.90;85.10;;;8.15;67.36;93220.09;5033363;28;20289;-80
2020/12/07 00:52:41;;;;;;;28.50;20.33;;;8.90;84.30;;;8.17;67.52;93223.28;5033462;28;20205;-82
2020/12/07 00:55:08;;;;;;;28.42;20.50;;;8.90;84.30;;;8.09;67.52;93222.78;5047515;28;20613;-83
2020/12/07 00:57:35;;;;;;;32.20;21.88;;;8.90;84.30;;;8.12;67.62;93220.53;5033403;28;20205;-83
2020/12/07 01:00:06;;;;;;;29.90;19.65;;;8.90;84.30;;;8.09;67.80;93201.88;5032951;28;20675;-82
2020/12/07 01:02:35;;;;;;;30.25;20.45;;;8.80;84.30;;;8.08;67.53;93190.66;5033473;28;20189;-82
2020/12/07 01:05:04;;;;;;;31.00;21.10;;;8.90;85.10;;;8.08;67.51;93203.72;5016701;28;20614;-83
2020/12/07 01:07:31;;;;;;;28.10;20.17;;;8.80;84.30;;;8.10;67.68;93199.03;5033269;28;20197;-83
2020/12/07 01:09:58;;;;;;;27.90;19.50;;;8.90;84.40;;;8.13;67.77;93174.31;5032993;28;20217;-82
2020/12/07 01:12:26;;;;;;;29.02;19.77;;;8.80;84.30;;;8.11;67.56;93179.75;5033380;28;20650;-83
2020/12/07 01:14:53;;;;;;;33.28;20.98;;;8.80;84.40;;;8.09;67.96;93192.25;5032888;28;20224;-83
2020/12/07 01:17:21;;;;;;;29.20;19.45;;;8.90;84.40;;;8.09;67.66;93191.44;5033413;28;20200;-84
2020/12/07 01:19:56;;;;;;;26.75;19.77;;;8.90;84.40;;;8.07;67.42;93183.81;5032994;28;20670;-83
2020/12/07 01:22:27;;;;;;;30.42;21.08;;;8.80;84.30;;;8.08;67.61;93174.97;5033010;28;20205;-83
2020/12/07 01:24:55;;;;;;;30.90;21.38;;;8.80;84.30;;;8.06;67.26;93181.44;5052971;28;20351;-82
2020/12/07 01:27:23;;;;;;;30.50;21.17;;;8.80;84.40;;;8.04;67.73;93170.41;5020175;28;20200;-83
2020/12/07 01:29:50;;;;;;;27.98;20.65;;;8.80;84.30;;;8.00;67.58;93164.84;5036323;28;20231;-83
2020/12/07 01:32:17;;;;;;;30.10;21.02;;;8.70;84.30;;;8.04;67.74;93175.63;5052873;28;20200;-83
2020/12/07 01:34:45;;;;;;;27.48;18.90;;;8.70;84.40;;;8.02;67.93;93147.94;5036297;28;20304;-83
2020/12/07 01:37:13;;;;;;;30.45;20.98;;;8.80;84.40;;;8.02;67.70;93157.59;5036177;28;20207;-84
2020/12/07 01:39:43;;;;;;;30.00;20.02;;;8.70;84.40;;;8.02;68.13;93152.38;5036277;28;20582;-84
2020/12/07 01:42:10;;;;;;;30.10;21.55;;;8.70;85.10;;;8.01;68.02;93140.31;5052827;28;20297;-83
2020/12/07 01:44:38;;;;;;;29.58;21.42;;;8.70;84.40;;;8.00;67.73;93131.69;5019750;28;20216;-83
2020/12/07 01:47:23;;;;;;;29.23;20.33;;;8.70;84.40;;;7.97;67.61;93137.34;5052477;28;20210;-83
2020/12/07 01:49:57;;;;;;;29.65;21.17;;;8.70;84.50;;;7.93;67.98;93123.13;5036009;28;20251;-83
2020/12/07 01:52:26;;;;;;;29.50;20.48;;;8.70;84.40;;;7.96;67.50;93129.75;5035883;28;20192;-84
2020/12/07 01:54:55;;;;;;;31.10;20.15;;;8.70;84.40;;;7.95;67.78;93121.09;5035524;28;20263;-83
2020/12/07 01:57:30;;;;;;;26.75;19.10;;;8.70;84.40;;;7.94;67.95;93126.56;5036892;28;20288;-83
2020/12/07 02:00:06;;;;;;;27.42;20.13;;;8.70;84.40;;;7.92;67.70;93129.38;5020930;28;20228;-83
2020/12/07 02:02:45;;;;;;;27.58;19.52;;;8.70;84.50;;;7.90;68.00;93126.19;5052527;28;20257;-82
2020/12/07 02:05:15;;;;;;;30.80;20.67;;;8.60;84.40;;;7.87;68.31;93139.66;5036334;28;20218;-83
2020/12/07 02:07:43;;;;;;;27.45;18.98;;;8.60;84.50;;;7.92;68.10;93154.69;5035793;28;20212;-83
2020/12/07 02:10:10;;;;;;;26.83;19.15;;;8.70;84.50;;;7.87;67.92;93144.88;5035447;28;20211;-84
2020/12/07 02:12:38;;;;;;;30.38;21.00;;;8.60;84.50;;;7.87;67.85;93146.72;5035465;28;20259;-83
2020/12/07 02:15:04;;;;;;;25.60;19.83;;;8.60;84.50;;;7.90;68.03;93170.56;5051624;28;20212;-83
2020/12/07 02:17:32;;;;;;;25.35;19.40;;;8.70;84.60;;;7.89;68.10;93170.78;5035473;28;20269;-84
2020/12/07 02:19:59;;;;;;;27.08;18.83;;;8.60;84.60;;;7.90;68.10;93185.41;5035483;28;20338;-83
2020/12/07 02:22:26;;;;;;;27.33;19.45;;;8.60;84.60;;;7.84;67.75;93184.50;5034779;28;20202;-83
2020/12/07 02:25:04;;;;;;;26.48;18.95;;;8.60;84.60;;;7.83;68.00;93199.34;5036909;28;20697;-83
2020/12/07 02:27:33;;;;;;;26.60;18.92;;;8.60;84.50;;;7.89;68.05;93207.34;5035371;28;20258;-83
2020/12/07 02:30:00;;;;;;;24.48;18.00;;;8.60;84.50;;;7.88;67.90;93206.53;5035539;28;20222;-82
2020/12/07 02:32:29;;;;;;;23.10;18.27;;;8.60;84.50;;;7.88;68.15;93230.00;5051639;28;20200;-83
2020/12/07 02:35:20;;;;;;;27.88;18.92;;;8.60;84.60;;;7.85;67.89;93204.34;5052185;28;20220;-83
2020/12/07 02:37:50;;;;;;;28.55;19.42;;;8.60;84.50;;;7.88;67.82;93213.56;5035466;28;20620;-83
2020/12/07 02:40:20;;;;;;;27.42;19.90;;;8.60;84.50;;;7.81;68.01;93190.94;5051108;28;20623;-82
2020/12/07 02:42:49;;;;;;;26.63;19.92;;;8.60;84.50;;;7.85;68.16;93214.81;5019376;28;20211;-83
2020/12/07 02:45:21;;;;;;;25.35;18.50;;;8.60;84.50;;;7.82;67.87;93221.25;5035877;28;20314;-84
2020/12/07 02:48:03;;;;;;;26.80;19.55;;;8.60;84.50;;;7.81;68.00;93226.66;5036831;28;20254;-84
2020/12/07 02:50:32;;;;;;;27.30;19.58;;;8.60;84.50;;;7.77;68.18;93225.53;5035166;28;20212;-83
2020/12/07 02:53:02;;;;;;;26.58;18.52;;;8.60;84.60;;;7.79;68.13;93229.50;5035141;28;20643;-83
2020/12/07 02:55:30;;;;;;;25.17;19.15;;;8.50;84.50;;;7.79;68.09;93223.50;5018782;28;20318;-83
2020/12/07 02:57:57;;;;;;;25.17;18.67;;;8.50;84.60;;;7.79;67.75;93213.84;5035040;28;20200;-83
2020/12/07 03:00:28;;;;;;;24.00;18.45;;;8.50;84.50;;;7.79;68.11;93226.09;5033940;28;20258;-83
2020/12/07 03:02:56;;;;;;;25.95;18.40;;;8.60;84.60;;;7.80;67.92;93209.41;5049071;28;20200;-83
2020/12/07 03:05:26;;;;;;;23.92;17.67;;;8.50;84.50;;;7.78;67.86;93207.03;5019069;28;20678;-83
2020/12/07 03:07:59;;;;;;;25.63;18.50;;;8.50;84.50;;;7.76;67.88;93213.47;5034991;28;20666;-82
2020/12/07 03:10:27;;;;;;;24.30;17.08;;;8.60;84.60;;;7.70;67.99;93215.13;5050403;28;20709;-83
2020/12/07 03:12:55;;;;;;;26.88;20.55;;;8.50;84.50;;;7.71;68.01;93229.78;5021151;28;20192;-83
2020/12/07 03:15:26;;;;;;;25.20;18.17;;;8.50;84.60;;;7.71;68.14;93226.38;5033723;28;20690;-83
2020/12/07 03:17:55;;;;;;;23.33;18.63;;;8.50;84.60;;;7.68;68.07;93220.56;5016260;28;20658;-84
2020/12/07 03:20:30;;;;;;;23.67;18.17;;;8.40;84.60;;;7.68;68.40;93223.19;5045499;28;20239;-82
2020/12/07 03:22:58;;;;;;;26.85;20.17;;;8.40;84.60;;;7.63;68.26;93222.22;5052316;28;20719;-83
2020/12/07 03:25:25;;;;;;;28.52;18.73;;;8.40;84.60;;;7.64;68.23;93226.44;5050080;28;20216;-83
2020/12/07 03:27:53;;;;;;;25.75;18.85;;;8.40;84.60;;;7.63;68.22;93227.44;5033248;28;20659;-82
2020/12/07 03:30:21;;;;;;;27.20;19.70;;;8.40;84.70;;;7.61;68.40;93226.88;5065964;28;20705;-82
2020/12/07 03:32:49;;;;;;;28.50;19.73;;;8.40;84.70;;;7.64;68.15;93239.47;5016921;28;20206;-83
2020/12/07 03:35:16;;;;;;;28.15;20.08;;;8.40;84.70;;;7.62;68.17;93242.31;5014890;28;20224;-82
2020/12/07 03:37:44;;;;;;;24.95;18.33;;;8.40;84.70;;;7.62;68.13;93233.69;5033264;28;20548;-82
2020/12/07 03:40:11;;;;;;;26.38;19.13;;;8.40;84.70;;;7.60;68.34;93227.88;5016232;28;20243;-83
2020/12/07 03:42:44;;;;;;;24.58;18.50;;;8.30;84.70;;;7.60;68.26;93231.28;5049892;28;20212;-82
2020/12/07 03:45:15;;;;;;;24.35;19.45;;;8.40;84.80;;;7.56;68.26;93219.69;5056708;28;20228;-82
2020/12/07 03:47:42;;;;;;;25.05;18.25;;;8.40;84.70;;;7.59;68.12;93221.88;5015545;28;20694;-82
2020/12/07 03:50:12;;;;;;;26.20;18.52;;;8.40;84.70;;;7.58;68.46;93222.06;5033467;28;20239;-83
2020/12/07 03:52:43;;;;;;;26.25;18.83;;;8.30;84.60;;;7.55;68.71;93220.69;5033634;28;20211;-82
2020/12/07 03:55:16;;;;;;;27.92;18.63;;;8.30;85.50;;;7.52;68.27;93215.91;5033797;28;20251;-81
2020/12/07 03:57:44;;;;;;;26.42;17.90;;;8.30;84.70;;;7.54;68.51;93221.69;5047756;28;20562;-82
2020/12/07 04:00:11;;;;;;;30.83;20.08;;;8.30;84.70;;;7.49;68.61;93204.06;5016439;28;20693;-82
2020/12/07 04:02:47;;;;;;;26.17;18.58;;;8.30;84.80;;;7.50;68.45;93229.16;5048296;28;20244;-82
2020/12/07 04:05:28;;;;;;;24.63;18.60;;;8.30;84.80;;;7.47;68.57;93220.97;5017787;28;20289;-83
2020/12/07 04:07:56;;;;;;;24.83;17.85;;;8.30;84.80;;;7.47;68.83;93224.38;5032760;28;20207;-82
2020/12/07 04:10:23;;;;;;;24.88;17.27;;;8.30;84.80;;;7.47;68.51;93226.19;5032163;28;20215;-82
2020/12/07 04:12:50;;;;;;;24.00;17.73;;;8.30;84.80;;;7.48;68.46;93256.47;5034443;28;20654;-82
2020/12/07 04:15:17;;;;;;;23.60;17.85;;;8.20;84.80;;;7.47;68.67;93260.09;5052862;28;20230;-82
2020/12/07 04:17:43;;;;;;;25.20;17.58;;;8.20;84.80;;;7.40;68.62;93246.31;5052508;28;20207;-83
2020/12/07 04:20:10;;;;;;;26.25;18.98;;;8.20;84.90;;;7.45;68.59;93262.91;5019468;28;20761;-82
2020/12/07 04:22:38;;;;;;;25.02;18.13;;;8.20;84.90;;;7.44;68.50;93258.72;5032787;28;20200;-83
2020/12/07 04:25:04;;;;;;;26.52;19.10;;;8.20;84.90;;;7.43;68.76;93264.16;5069145;28;20222;-82
2020/12/07 04:27:31;;;;;;;24.83;18.13;;;8.20;84.90;;;7.44;68.78;93266.53;5050730;28;20200;-82
2020/12/07 04:29:58;;;;;;;25.70;18.15;;;8.20;85.00;;;7.44;68.87;93276.97;5019376;28;20211;-82
2020/12/07 04:32:25;;;;;;;25.00;17.75;;;8.20;84.90;;;7.46;68.58;93288.00;5019038;28;20693;-82
2020/12/07 04:34:52;;;;;;;22.33;17.33;;;8.20;84.90;;;7.47;68.66;93286.19;5035898;28;20748;-82
2020/12/07 04:37:20;;;;;;;23.40;18.67;;;8.20;85.00;;;7.44;68.91;93281.41;5018256;28;20197;-82
2020/12/07 04:39:46;;;;;;;24.77;17.55;;;8.20;85.00;;;7.45;68.58;93289.00;5051937;28;20235;-83
2020/12/07 04:42:14;;;;;;;26.55;17.83;;;8.20;85.00;;;7.45;68.59;93296.03;5052138;28;20228;-83
2020/12/07 04:44:41;;;;;;;23.80;17.33;;;8.30;85.00;;;7.44;68.88;93282.19;5051110;28;20212;-81
2020/12/07 04:47:09;;;;;;;24.08;17.85;;;8.20;85.00;;;7.47;68.81;93301.81;5036084;28;20204;-81
2020/12/07 04:49:37;;;;;;;24.48;18.10;;;8.20;85.00;;;7.50;68.38;93304.81;5052725;28;20273;-83
2020/12/07 04:52:05;;;;;;;23.30;16.90;;;8.20;85.00;;;7.51;68.70;93311.63;5034864;28;20249;-84
2020/12/07 04:54:37;;;;;;;24.40;19.02;;;8.20;85.00;;;7.50;68.58;93307.41;5062636;28;20317;-82
2020/12/07 04:57:05;;;;;;;26.88;19.23;;;8.30;85.00;;;7.50;68.43;93296.19;5051036;28;20253;-82
2020/12/07 04:59:33;;;;;;;24.67;18.77;;;8.20;85.00;;;7.49;68.56;93305.81;5052087;28;20685;-82
2020/12/07 05:02:01;;;;;;;23.52;17.48;;;8.20;85.00;;;7.45;68.52;93303.88;5034991;28;20224;-83
2020/12/07 05:04:28;;;;;;;23.15;17.83;;;8.20;85.00;;;7.48;68.72;93316.47;5051043;28;20717;-82
2020/12/07 05:07:07;;;;;;;25.65;18.25;;;8.20;85.00;;;7.51;68.27;93318.66;5051274;28;20224;-82
2020/12/07 05:09:35;;;;;;;24.35;18.23;;;8.20;85.00;;;7.48;68.90;93314.69;5050845;28;20212;-82
2020/12/07 05:12:15;;;;;;;24.95;18.23;;;8.30;85.00;;;7.50;68.44;93325.69;5018080;28;20214;-82
2020/12/07 05:14:43;;;;;;;23.13;17.90;;;8.30;85.00;;;7.52;68.56;93321.06;5019231;28;20285;-83
2020/12/07 05:17:09;;;;;;;23.95;16.98;;;8.20;85.00;;;7.53;68.31;93314.03;5051828;28;20286;-82
2020/12/07 05:19:36;;;;;;;23.73;18.25;;;8.20;85.00;;;7.53;68.30;93308.81;5086519;28;20322;-82
2020/12/07 05:22:14;;;;;;;23.35;17.33;;;8.30;85.00;;;7.49;68.46;93302.44;5019018;28;20216;-82
2020/12/07 05:24:42;;;;;;;23.13;17.58;;;8.30;85.10;;;7.53;68.36;93304.41;5038541;28;20255;-83
2020/12/07 05:27:16;;;;;;;21.17;16.92;;;8.30;85.00;;;7.48;68.38;93301.63;5049320;28;20292;-83
2020/12/07 05:30:03;;;;;;;22.48;17.25;;;8.30;85.00;;;7.51;68.25;93311.63;5047436;28;20784;-83
2020/12/07 05:32:38;;;;;;;21.92;17.63;;;8.30;85.20;;;7.48;68.70;93314.69;5051199;28;20291;-83
2020/12/07 05:35:07;;;;;;;24.45;17.30;;;8.30;84.90;;;7.50;68.49;93306.63;5051563;28;20246;-83
2020/12/07 05:37:36;;;;;;;23.65;18.58;;;8.30;85.00;;;7.48;68.47;93308.66;5067168;28;20200;-83
2020/12/07 05:40:07;;;;;;;26.83;18.10;;;8.30;85.00;;;7.50;68.23;93309.25;5051183;28;20212;-83
2020/12/07 05:42:34;;;;;;;21.77;16.80;;;8.20;85.00;;;7.52;68.41;93312.44;5052043;28;20223;-82
2020/12/07 05:45:03;;;;;;;20.55;16.05;;;8.30;85.00;;;7.54;68.25;93323.44;5050478;28;20220;-83
2020/12/07 05:47:37;;;;;;;24.77;18.10;;;8.20;85.00;;;7.51;68.77;93311.63;5066757;28;20654;-82
2020/12/07 05:50:09;;;;;;;22.73;17.98;;;8.20;85.00;;;7.53;68.35;93321.84;5050668;28;20222;-82
2020/12/07 05:52:54;;;;;;;21.17;17.45;;;8.20;84.90;;;7.52;68.33;93312.44;5050201;28;20200;-82
2020/12/07 05:55:22;;;;;;;21.73;17.17;;;8.30;85.00;;;7.53;68.32;93314.03;5049966;28;20230;-83
2020/12/07 05:58:06;;;;;;;22.02;17.92;;;8.30;85.00;;;7.51;68.26;93308.25;5033657;28;20194;-82
2020/12/07 06:00:35;;;;;;;28.38;18.50;;;8.20;85.00;;;7.50;68.22;93311.84;5068669;28;20220;-83
2020/12/07 06:03:05;;;;;;;25.50;19.50;;;8.20;84.90;;;7.50;68.32;93306.63;5035448;28;20485;-83
2020/12/07 06:05:32;;;;;;;24.73;18.25;;;8.30;85.00;;;7.50;68.43;93311.84;5052179;28;20564;-82
2020/12/07 06:08:06;;;;;;;22.45;17.58;;;8.20;84.90;;;7.51;68.37;93323.88;5035247;28;20196;-82
2020/12/07 06:11:04;;;;;;;25.00;17.45;;;8.20;85.00;;;7.47;68.28;93326.13;5035024;28;20224;-82
2020/12/07 06:13:33;;;;;;;24.30;18.30;;;8.20;85.00;;;7.48;68.38;93311.25;5051880;28;20212;-82
2020/12/07 06:16:04;;;;;;;26.55;18.60;;;8.30;85.00;;;7.45;68.57;93311.69;5035495;28;20188;-83
2020/12/07 06:18:41;;;;;;;25.08;18.20;;;8.20;85.00;;;7.48;68.22;93300.81;5035181;28;20283;-83
2020/12/07 06:21:19;;;;;;;31.88;19.58;;;8.20;85.00;;;7.44;68.49;93289.22;5068115;28;20288;-83
2020/12/07 06:23:47;;;;;;;31.98;19.38;;;8.20;85.00;;;7.37;68.45;93297.91;5035241;28;20216;-81
2020/12/07 06:26:17;;;;;;;29.33;18.42;;;8.20;84.90;;;7.39;68.38;93302.09;5047824;28;20219;-82
2020/12/07 06:28:48;;;;;;;24.23;18.33;;;8.20;85.00;;;7.39;68.69;93322.97;5015332;28;20213;-83
2020/12/07 06:31:20;;;;;;;30.30;19.52;;;8.10;84.90;;;7.38;68.68;93324.78;5015305;28;20247;-82
2020/12/07 06:33:53;;;;;;;33.72;18.70;;;8.20;85.00;;;7.34;68.70;93318.38;5015371;28;20223;-82
2020/12/07 06:36:32;;;;;;;33.70;18.10;;;8.10;85.00;;;7.35;68.47;93317.38;5014712;28;20209;-83
2020/12/07 06:39:08;;;;;;;30.73;17.65;;;8.20;85.10;;;7.35;68.56;93314.78;5015303;28;20678;-83
2020/12/07 06:41:46;;;;;;;35.75;17.83;;;8.10;85.00;;;7.35;68.66;93328.59;5014854;28;20220;-83
2020/12/07 06:44:17;;;;;;;23.98;16.45;;;8.10;85.10;;;7.33;68.63;93333.22;5015176;28;20294;-82
2020/12/07 06:47:17;;;;;;;24.55;17.90;;;8.10;85.00;;;7.33;68.82;93330.59;5024310;28;20208;-81
2020/12/07 06:49:59;;;;;;;36.15;18.75;;;8.10;85.00;;;7.32;68.87;93328.22;5061993;28;20586;-81
2020/12/07 06:52:34;;;;;;;30.88;17.08;;;8.10;85.00;;;7.32;68.94;93333.44;5037233;28;20193;-83
2020/12/07 06:55:12;;;;;;;24.63;17.70;;;8.10;85.00;;;7.31;68.66;93337.06;5034107;28;20216;-82
2020/12/07 06:57:51;;;;;;;26.02;16.98;;;8.10;85.10;;;7.31;68.75;93343.09;5033409;28;20283;-82
2020/12/07 07:00:26;;;;;;;27.00;18.65;;;8.10;85.10;;;7.29;68.85;93346.91;5033706;28;20226;-83
2020/12/07 07:02:57;;;;;;;25.02;17.95;;;8.10;85.10;;;7.27;68.77;93359.34;5048312;28;20703;-82
2020/12/07 07:05:28;;;;;;;22.50;17.58;;;8.00;85.10;;;7.30;68.98;93364.94;5050433;28;20645;-82
2020/12/07 07:07:58;;;;;;;26.75;19.98;;;8.10;85.20;;;7.22;68.70;93365.97;5048977;28;20266;-82
2020/12/07 07:10:25;;;;;;;25.55;19.23;;;8.10;85.20;;;7.29;68.89;93373.78;5032401;28;20294;-81
2020/12/07 07:12:52;;;;;;;25.98;17.83;;;8.00;85.20;;;7.32;68.88;93378.59;5048745;28;20214;-80
2020/12/07 07:15:20;;;;;;;24.23;17.88;;;8.10;85.30;;;7.33;68.96;93390.59;5052924;28;20211;-82
2020/12/07 07:17:47;;;;;;;21.02;16.98;;;8.00;85.30;;;7.34;69.44;93397.41;5034164;28;20654;-82
2020/12/07 07:20:16;;;;;;;22.02;16.27;;;8.00;85.30;;;7.36;68.88;93403.22;5068843;28;20251;-82
2020/12/07 07:22:48;;;;;;;19.58;15.93;;;8.00;85.20;;;7.37;68.86;93402.22;5068909;28;20235;-83
2020/12/07 07:30:24;;;;;;;21.10;16.30;;;8.10;85.30;;;7.44;68.50;93430.88;5029020;28;20236;-82
2020/12/07 07:32:54;;;;;;;19.70;16.02;;;8.10;85.30;;;7.43;68.80;93431.09;5029479;28;20201;-82
2020/12/07 07:35:31;;;;;;;22.35;16.13;;;8.10;85.30;;;7.45;68.43;93444.72;5030731;28;20231;-82
2020/12/07 07:37:59;;;;;;;20.17;16.27;;;8.10;85.30;;;7.47;68.68;93458.34;5030827;28;20201;-82
2020/12/07 07:40:29;;;;;;;20.90;15.82;;;8.20;85.30;;;7.47;68.41;93459.16;5030739;28;20270;-82
2020/12/07 07:43:02;;;;;;;19.85;14.95;;;8.20;85.30;;;7.50;68.78;93453.50;5020394;28;20220;-82
2020/12/07 07:45:38;;;;;;;21.85;17.35;;;8.20;85.30;;;7.48;68.50;93447.72;5050833;28;20212;-82
2020/12/07 07:48:16;;;;;;;18.10;15.13;;;8.20;85.30;;;7.51;68.38;93449.91;5053039;28;20215;-83
2020/12/07 08:18:18;;;;;;;18.08;15.02;;;8.30;85.20;;;7.56;68.69;93456.31;5035254;28;20457;-82
2020/12/07 08:20:55;;;;;;;22.88;16.02;;;8.30;86.00;;;7.56;68.22;93446.66;5038652;28;20198;-82
2020/12/07 08:23:34;;;;;;;20.40;14.85;;;8.30;85.20;;;7.59;68.50;93459.31;5051485;28;20662;-82
2020/12/07 08:26:02;;;;;;;23.38;15.90;;;8.30;85.20;;;7.59;68.68;93474.97;5035212;28;20661;-82
2020/12/07 08:28:38;;;;;;;27.50;16.83;;;8.30;85.20;;;7.62;68.24;93482.38;5035155;28;20664;-83
2020/12/07 08:31:16;;;;;;;24.65;16.75;;;8.30;85.20;;;7.61;68.53;93496.41;5070464;28;20192;-82
2020/12/07 08:34:01;;;;;;;24.92;16.17;;;8.30;85.10;;;7.59;68.34;93498.44;5068792;28;20341;-82
2020/12/07 08:36:31;;;;;;;28.77;16.30;;;8.30;85.20;;;7.58;68.62;93496.84;5070196;28;20198;-82
2020/12/07 08:38:59;;;;;;;22.15;16.13;;;8.30;85.10;;;7.59;68.30;93508.06;5053108;28;20224;-83
2020/12/07 08:41:28;;;;;;;18.95;14.35;;;8.30;85.10;;;7.62;68.28;93511.06;5052985;28;20281;-82
2020/12/07 08:44:09;;;;;;;24.05;14.65;;;8.30;85.40;;;7.62;68.36;93526.72;5052914;28;20216;-82
2020/12/07 08:46:41;;;;;;;24.52;16.30;;;8.30;85.20;;;7.62;68.47;93534.56;5053428;28;20241;-81
2020/12/07 08:49:08;;;;;;;40.35;16.63;;;8.50;85.20;;;7.65;68.46;93528.94;5034859;28;20238;-81
2020/12/07 08:51:37;;;;;;;25.35;15.30;;;8.30;85.10;;;7.66;68.48;93527.09;5052103;28;20200;-83
2020/12/07 08:54:04;;;;;;;36.13;16.42;;;8.30;85.10;;;7.66;68.45;93514.84;5035410;28;20228;-81
2020/12/07 08:56:31;;;;;;;22.65;15.27;;;8.40;85.20;;;7.66;68.39;93514.06;5036265;28;20373;-82
2020/12/07 08:58:58;;;;;;;25.75;16.88;;;8.40;85.20;;;7.66;68.18;93520.06;5051142;28;20212;-81
2020/12/07 09:01:26;;;;;;;29.42;14.95;;;8.30;85.10;;;7.68;68.34;93528.50;5050787;28;20219;-82
2020/12/07 09:03:53;;;;;;;31.20;16.55;;;8.30;85.10;;;7.69;68.54;93531.94;5051860;28;20348;-83
2020/12/07 09:06:21;;;;;;;28.00;15.05;;;8.30;85.10;;;7.70;68.50;93525.69;5035789;28;20262;-82
2020/12/07 09:08:47;;;;;;;29.38;15.73;;;8.40;85.10;;;7.69;68.46;93535.31;5012625;28;20231;-82
2020/12/07 09:11:18;;;;;;;28.23;16.45;;;8.40;86.00;;;7.68;68.43;93532.94;5032360;28;20251;-83
2020/12/07 09:13:46;;;;;;;23.40;15.45;;;8.40;85.20;;;7.73;68.60;93537.53;5000434;28;20220;-83
2020/12/07 09:16:13;;;;;;;23.52;15.63;;;8.50;85.20;;;7.74;68.42;93554.78;5016449;28;20459;-83
2020/12/07 09:18:40;;;;;;;22.42;16.02;;;8.40;85.20;;;7.74;68.37;93552.97;5031531;28;20228;-82
2020/12/07 09:21:08;;;;;;;31.73;16.63;;;8.40;85.20;;;7.68;68.54;93538.94;5032779;28;20279;-82
2020/12/07 09:23:37;;;;;;;34.45;17.08;;;8.40;85.20;;;7.74;68.50;93552.16;5032548;28;20565;-83
2020/12/07 09:26:05;;;;;;;25.73;17.15;;;8.40;85.20;;;7.71;68.33;93549.97;5043738;28;20203;-82
2020/12/07 09:28:35;;;;;;;23.17;16.75;;;8.50;85.20;;;7.73;68.23;93556.59;5019160;28;20199;-83
2020/12/07 09:31:06;;;;;;;19.02;14.73;;;8.40;85.10;;;7.73;68.33;93543.53;5036043;28;20250;-83
2020/12/07 09:33:36;;;;;;;32.28;16.65;;;8.40;85.10;;;7.74;68.27;93541.72;5052373;28;20666;-83
2020/12/07 09:36:05;;;;;;;23.55;15.85;;;8.40;85.10;;;7.77;68.33;93533.50;5019765;28;20204;-83
2020/12/07 09:38:35;;;;;;;21.58;15.65;;;8.40;85.10;;;7.75;68.23;93536.31;5036242;28;20216;-83
2020/12/07 09:41:03;;;;;;;29.60;17.35;;;8.40;85.20;;;7.80;68.29;93540.88;5019423;28;20204;-84
2020/12/07 09:43:30;;;;;;;24.48;16.10;;;8.50;85.20;;;7.81;68.25;93539.88;5035916;28;20210;-83
2020/12/07 09:45:57;;;;;;;25.65;15.90;;;8.50;85.30;;;7.84;68.21;93550.72;5035946;28;20199;-83
2020/12/07 09:48:23;;;;;;;39.83;19.25;;;8.50;85.30;;;7.85;68.42;93551.53;5019629;28;20684;-82
2020/12/07 09:50:51;;;;;;;24.42;16.77;;;8.50;85.30;;;7.87;68.18;93559.94;5052319;28;20188;-84
2020/12/07 09:53:18;;;;;;;26.67;16.25;;;8.50;85.20;;;7.86;68.41;93553.13;5019305;28;20212;-84
2020/12/07 09:55:46;;;;;;;19.70;15.30;;;8.50;85.20;;;7.89;68.38;93557.13;5032033;28;20291;-83
2020/12/07 09:58:14;;;;;;;30.92;16.13;;;8.50;85.10;;;7.89;68.16;93567.56;5048346;28;20223;-82
2020/12/07 10:00:41;;;;;;;20.38;14.73;;;8.60;85.20;;;7.90;68.50;93569.16;5031977;28;20248;-83
2020/12/07 10:03:08;;;;;;;34.42;16.05;;;8.50;85.20;;;7.92;68.14;93580.19;5048745;28;20621;-83
2020/12/07 10:05:35;;;;;;;34.88;16.77;;;8.50;85.10;;;7.93;68.13;93582.59;5031688;28;20227;-82
2020/12/07 10:08:02;;;;;;;21.00;14.38;;;8.50;86.00;;;7.95;68.13;93572.75;5031899;28;20200;-82
2020/12/07 10:10:29;;;;;;;31.85;15.60;;;8.50;85.10;;;7.96;68.44;93560.50;5014804;28;20224;-82
2020/12/07 10:13:02;;;;;;;29.15;17.52;;;8.60;85.20;;;7.97;68.16;93562.09;5048578;28;20193;-82
2020/12/07 10:15:29;;;;;;;20.45;15.68;;;8.60;85.10;;;7.96;68.33;93556.06;5048275;28;20216;-82
2020/12/07 10:17:56;;;;;;;31.98;15.98;;;8.60;85.20;;;7.98;68.34;93561.09;5015444;28;20204;-83
2020/12/07 10:20:23;;;;;;;27.85;16.88;;;8.60;85.10;;;7.95;68.27;93549.25;5048368;28;20729;-82
2020/12/07 10:22:49;;;;;;;21.83;15.38;;;8.60;85.20;;;8.01;67.98;93552.84;5021695;28;20215;-82
2020/12/07 10:25:16;;;;;;;24.23;15.55;;;8.60;85.10;;;7.99;68.13;93560.06;5031492;28;20324;-82
2020/12/07 10:27:42;;;;;;;25.02;16.63;;;8.60;85.10;;;8.02;68.00;93551.84;5031504;28;20197;-82
2020/12/07 10:30:09;;;;;;;25.08;15.45;;;8.60;85.10;;;8.03;68.36;93550.81;5030902;28;20244;-79
2020/12/07 10:32:36;;;;;;;27.08;17.77;;;8.70;85.20;;;8.04;67.91;93552.41;5031893;28;20618;-80
2020/12/07 10:35:03;;;;;;;23.17;16.67;;;8.60;85.10;;;8.02;68.38;93549.22;5015239;28;20235;-80
2020/12/07 10:37:30;;;;;;;20.70;16.13;;;8.70;85.10;;;8.06;67.93;93560.06;5031702;28;20189;-80
2020/12/07 10:39:56;;;;;;;24.17;16.95;;;8.70;85.20;;;8.06;68.17;93555.63;5015223;28;20265;-80
2020/12/07 10:42:23;;;;;;;22.40;16.10;;;8.70;86.00;;;8.08;67.88;93558.84;5047832;28;20278;-82
2020/12/07 10:44:50;;;;;;;22.95;17.52;;;8.70;85.10;;;8.07;68.25;93559.84;5031342;28;20216;-82
2020/12/07 10:47:17;;;;;;;22.42;16.20;;;8.70;85.10;;;8.08;68.33;93563.25;5031248;28;20235;-83
2020/12/07 10:49:44;;;;;;;22.40;15.55;;;8.70;85.10;;;8.13;68.25;93568.63;5032864;28;20217;-83
2020/12/07 10:52:11;;;;;;;22.10;16.33;;;8.70;85.30;;;8.13;68.25;93572.06;5022015;28;20250;-83
2020/12/07 10:54:37;;;;;;;20.67;15.65;;;8.80;85.20;;;8.10;67.91;93575.06;5045676;28;20739;-84
2020/12/07 10:57:04;;;;;;;23.80;15.73;;;8.80;85.30;;;8.14;68.03;93576.28;5018059;28;20208;-83
2020/12/07 10:59:31;;;;;;;20.65;16.15;;;8.80;85.30;;;8.21;67.99;93572.81;5018518;28;20370;-83
2020/12/07 11:01:59;;;;;;;25.70;18.23;;;8.80;85.30;;;8.23;67.96;93576.81;5018163;28;20223;-83
2020/12/07 11:04:25;;;;;;;28.98;17.40;;;8.80;85.30;;;8.24;68.21;93572.38;5018254;28;20223;-82